Terminal Aerodrome Forecast
Issued by NWS

Home | Current Version | Previous Version | Text Only | Print | Product List | Glossary Off
Versions: 1 2 3 4 5 6 7 8 9 10 11 12 13 14

000
FTUS43 KPAH 160500
TAFCGI
TAF
KCGI 160520Z 1606/1706 34006KT P6SM SCT008 OVC018
      TEMPO 1606/1610 4SM BR BKN006
     FM161130 01004KT P6SM SCT020 BKN060
     FM161900 02006KT P6SM SKC
     FM162230 00000KT P6SM SKC=

USA.gov is the U.S. government's official web portal to all federal, state and local government web resources and services.